createdAt,value
2023-03-10T00:02:49.733Z,94.02
2023-03-10T00:05:40.231Z,93.67
2023-03-10T00:08:29.778Z,93.15
2023-03-10T00:11:19.629Z,93.51
2023-03-10T00:14:08.821Z,93.81
2023-03-10T00:16:57.989Z,93.70
2023-03-10T00:19:48.776Z,93.32
2023-03-10T00:22:38.080Z,93.17
2023-03-10T00:25:27.409Z,93.52
2023-03-10T00:28:16.750Z,93.78
2023-03-10T00:31:09.998Z,93.90
2023-03-10T00:34:00.721Z,93.52
2023-03-10T00:36:51.324Z,93.69
2023-03-10T00:39:40.596Z,93.55
2023-03-10T00:42:29.843Z,93.61
2023-03-10T00:45:19.394Z,93.48
2023-03-10T00:48:08.890Z,93.60
2023-03-10T00:50:58.543Z,93.83
2023-03-10T00:53:50.285Z,93.59
2023-03-10T00:56:40.100Z,93.72
2023-03-10T00:59:34.894Z,93.86
2023-03-10T01:02:30.191Z,93.78
2023-03-10T01:05:20.666Z,93.91
2023-03-10T01:08:09.944Z,93.75
2023-03-10T01:11:00.611Z,93.50
2023-03-10T01:13:51.002Z,93.57
2023-03-10T01:16:40.239Z,93.72
2023-03-10T01:19:29.436Z,93.33
2023-03-10T01:22:18.804Z,93.24
2023-03-10T01:25:09.227Z,92.78
2023-03-10T01:28:00.974Z,93.34
2023-03-10T01:30:50.673Z,93.63
2023-03-10T01:33:42.926Z,93.19
2023-03-10T01:36:32.210Z,92.69
2023-03-10T01:39:21.575Z,93.04
2023-03-10T01:42:10.726Z,93.04
2023-03-10T01:45:11.312Z,93.48
2023-03-10T01:48:00.861Z,93.35
2023-03-10T01:50:54.251Z,92.28
2023-03-10T01:53:43.806Z,92.20
2023-03-10T01:56:33.091Z,92.46
2023-03-10T01:59:23.227Z,92.15
2023-03-10T02:02:14.338Z,92.74
2023-03-10T02:05:04.523Z,92.22
2023-03-10T02:07:57.696Z,92.29
2023-03-10T02:10:47.932Z,92.51
2023-03-10T02:13:38.617Z,92.78
2023-03-10T02:16:27.910Z,92.85
2023-03-10T02:19:40.249Z,93.06
2023-03-10T02:22:29.665Z,92.85
2023-03-10T02:25:35.192Z,93.28
2023-03-10T02:28:25.944Z,93.05
2023-03-10T02:31:16.046Z,93.08
2023-03-10T02:34:06.789Z,93.12
2023-03-10T02:36:56.855Z,93.22
2023-03-10T02:39:46.078Z,93.65
2023-03-10T02:42:37.664Z,93.79
2023-03-10T02:45:35.690Z,93.56
2023-03-10T02:48:28.685Z,93.56
2023-03-10T02:51:22.563Z,93.91
2023-03-10T02:54:12.608Z,94.13
2023-03-10T02:57:02.117Z,93.70
2023-03-10T02:59:51.423Z,93.44
2023-03-10T03:02:42.415Z,93.02
2023-03-10T03:05:31.678Z,93.43
2023-03-10T03:08:21.874Z,93.30
2023-03-10T03:11:11.795Z,93.46
2023-03-10T03:14:01.477Z,93.35
2023-03-10T03:16:52.490Z,93.49
2023-03-10T03:19:43.209Z,93.59
2023-03-10T03:22:33.427Z,93.92
2023-03-10T03:25:24.126Z,93.73
2023-03-10T03:28:14.342Z,93.45
2023-03-10T03:31:05.934Z,93.48
2023-03-10T03:33:55.283Z,93.59
2023-03-10T03:36:46.151Z,94.02
2023-03-10T03:39:38.268Z,93.50
2023-03-10T03:42:29.965Z,93.24
2023-03-10T03:45:22.117Z,93.54
2023-03-10T03:48:15.001Z,93.38
2023-03-10T03:51:05.807Z,93.69
2023-03-10T03:54:02.763Z,93.60
2023-03-10T03:56:55.582Z,93.90
2023-03-10T03:59:44.856Z,93.44
2023-03-10T04:02:34.308Z,93.47
2023-03-10T04:05:24.032Z,93.05
2023-03-10T04:08:14.227Z,93.55
2023-03-10T04:11:05.108Z,93.47
2023-03-10T04:13:56.378Z,93.42
2023-03-10T04:16:45.694Z,93.64
2023-03-10T04:19:35.495Z,93.91
2023-03-10T04:22:30.299Z,93.20
2023-03-10T04:25:20.078Z,93.41
2023-03-10T04:28:11.361Z,93.45
2023-03-10T04:31:00.730Z,93.39
2023-03-10T04:33:54.164Z,93.64
2023-03-10T04:36:44.602Z,93.55
2023-03-10T04:39:33.997Z,93.36
2023-03-10T04:42:23.680Z,93.12
2023-03-10T04:45:14.696Z,93.76
2023-03-10T04:48:05.678Z,93.67
2023-03-10T04:50:59.443Z,94.01
2023-03-10T04:53:51.431Z,93.53
2023-03-10T04:56:41.298Z,93.19
2023-03-10T04:59:30.730Z,93.67
2023-03-10T05:02:21.381Z,94.00
2023-03-10T05:05:12.838Z,93.81
2023-03-10T05:08:07.150Z,93.78
2023-03-10T05:10:56.833Z,93.68
2023-03-10T05:13:46.352Z,93.13
2023-03-10T05:16:35.804Z,93.27
2023-03-10T05:19:28.809Z,93.81
2023-03-10T05:22:20.257Z,93.70
2023-03-10T05:25:13.289Z,93.88
2023-03-10T05:28:04.001Z,93.48
2023-03-10T05:30:54.471Z,93.77
2023-03-10T05:33:44.351Z,93.44
2023-03-10T05:36:36.586Z,93.72
2023-03-10T05:39:28.160Z,93.07
2023-03-10T05:42:20.289Z,93.32
2023-03-10T05:45:12.188Z,93.16
2023-03-10T05:48:01.791Z,93.05
2023-03-10T05:51:00.721Z,92.93
2023-03-10T05:53:52.260Z,92.95
2023-03-10T05:56:46.789Z,93.26
2023-03-10T05:59:36.218Z,93.44
2023-03-10T06:02:25.932Z,93.23
2023-03-10T06:05:15.381Z,92.83
2023-03-10T06:08:04.719Z,92.91
2023-03-10T06:10:55.537Z,93.40
2023-03-10T06:13:44.787Z,92.76
2023-03-10T06:16:34.156Z,92.54
2023-03-10T06:19:24.889Z,92.86
2023-03-10T06:22:14.285Z,93.01
2023-03-10T06:25:03.908Z,92.58
2023-03-10T06:27:54.545Z,92.82
2023-03-10T06:30:43.792Z,92.39
2023-03-10T06:33:33.847Z,92.42
2023-03-10T06:36:26.506Z,91.55
2023-03-10T06:39:15.774Z,92.05
2023-03-10T06:42:05.054Z,92.30
2023-03-10T06:44:57.506Z,92.62
2023-03-10T06:47:46.850Z,92.53
2023-03-10T06:50:41.904Z,91.66
2023-03-10T06:53:31.152Z,92.42
2023-03-10T06:56:23.489Z,92.14
2023-03-10T06:59:12.811Z,91.36
2023-03-10T07:02:03.903Z,91.78
2023-03-10T07:04:53.267Z,91.84
2023-03-10T07:07:42.532Z,91.18
2023-03-10T07:10:31.750Z,91.29
2023-03-10T07:13:22.064Z,90.75
2023-03-10T07:16:11.452Z,91.10
2023-03-10T07:19:02.032Z,91.27
2023-03-10T07:21:51.281Z,91.23
2023-03-10T07:24:40.573Z,91.39
2023-03-10T07:27:29.796Z,91.13
2023-03-10T07:30:19.611Z,90.82
2023-03-10T07:33:08.819Z,90.84
2023-03-10T07:35:59.496Z,91.05
2023-03-10T07:38:49.304Z,91.07
2023-03-10T07:41:38.501Z,93.08
2023-03-10T07:44:27.858Z,93.78
2023-03-10T07:47:17.406Z,91.62
2023-03-10T07:50:07.774Z,91.39
2023-03-10T07:52:59.288Z,90.64
2023-03-10T07:55:48.453Z,90.79
2023-03-10T07:58:38.085Z,89.80
2023-03-10T08:01:27.702Z,89.48
2023-03-10T08:04:17.405Z,86.39
2023-03-10T08:07:07.068Z,86.58
2023-03-10T08:09:57.662Z,86.40
2023-03-10T08:12:46.943Z,86.27
2023-03-10T08:15:36.709Z,87.20
2023-03-10T08:18:26.588Z,87.12
2023-03-10T08:21:15.755Z,86.96
2023-03-10T08:24:05.353Z,88.99
2023-03-10T08:26:56.532Z,89.21
2023-03-10T08:29:45.769Z,88.48
2023-03-10T08:32:35.062Z,89.73
2023-03-10T08:35:24.330Z,88.46
2023-03-10T08:38:13.525Z,87.28
2023-03-10T08:41:13.197Z,84.14
2023-03-10T08:44:04.272Z,86.08
2023-03-10T08:46:53.826Z,88.15
2023-03-10T08:49:45.744Z,86.17
2023-03-10T08:52:36.471Z,85.93
2023-03-10T08:55:25.820Z,81.83
2023-03-10T08:58:15.137Z,86.04
2023-03-10T09:01:06.357Z,85.89
2023-03-10T09:03:55.618Z,85.28
2023-03-10T09:06:44.890Z,82.87
2023-03-10T09:09:34.287Z,84.05
2023-03-10T09:12:23.518Z,83.28
2023-03-10T09:15:13.037Z,84.23
2023-03-10T09:18:03.861Z,83.82
2023-03-10T09:20:53.386Z,84.28
2023-03-10T09:23:45.866Z,85.72
2023-03-10T09:26:35.622Z,87.86
2023-03-10T09:29:41.784Z,85.29
2023-03-10T09:32:32.238Z,84.82
2023-03-10T09:35:23.215Z,83.52
2023-03-10T09:38:13.003Z,82.65
2023-03-10T09:41:20.248Z,83.96
2023-03-10T09:44:30.894Z,84.21
2023-03-10T09:47:38.386Z,84.73
2023-03-10T09:50:40.153Z,83.55
2023-03-10T09:54:09.195Z,78.16
2023-03-10T09:57:01.126Z,78.97
2023-03-10T09:59:55.422Z,82.31
2023-03-10T10:02:49.196Z,79.55
2023-03-10T10:05:42.891Z,80.44
2023-03-10T10:08:45.022Z,84.40
2023-03-10T10:11:38.454Z,83.61
2023-03-10T10:14:31.550Z,83.88
2023-03-10T10:17:33.816Z,78.00
2023-03-10T10:20:32.479Z,82.93
2023-03-10T10:23:30.926Z,80.76
2023-03-10T10:26:22.863Z,81.05
2023-03-10T10:29:20.130Z,83.09
2023-03-10T10:32:12.483Z,83.63
2023-03-10T10:35:17.196Z,82.70
2023-03-10T10:38:18.820Z,84.36
2023-03-10T10:41:19.738Z,80.29
2023-03-10T10:44:15.550Z,83.41
2023-03-10T10:47:05.025Z,83.11
2023-03-10T10:49:54.865Z,82.52
2023-03-10T10:52:46.416Z,83.37
2023-03-10T10:55:37.229Z,78.11
2023-03-10T10:58:31.799Z,77.74
2023-03-10T11:01:21.137Z,80.36
2023-03-10T11:04:15.881Z,81.21
2023-03-10T11:07:13.346Z,82.74
2023-03-10T11:10:03.086Z,77.36
2023-03-10T11:13:05.741Z,75.56
2023-03-10T11:16:06.602Z,77.36
2023-03-10T11:19:02.092Z,77.62
2023-03-10T11:21:57.393Z,76.21
2023-03-10T11:24:53.556Z,76.11
2023-03-10T11:27:50.480Z,72.35
2023-03-10T11:30:46.530Z,77.93
2023-03-10T11:33:47.425Z,74.95
2023-03-10T11:36:55.499Z,71.64
2023-03-10T11:39:56.080Z,76.52
2023-03-10T11:42:56.251Z,78.45
2023-03-10T11:45:52.841Z,63.27
2023-03-10T11:48:54.398Z,70.48
2023-03-10T11:51:47.468Z,74.04
2023-03-10T11:54:42.404Z,64.85
2023-03-10T11:57:38.145Z,72.97
2023-03-10T12:00:34.521Z,63.09
2023-03-10T12:03:40.603Z,70.48
2023-03-10T12:06:40.065Z,66.51
2023-03-10T12:09:42.333Z,67.87
2023-03-10T12:12:36.390Z,61.46
2023-03-10T12:15:30.486Z,58.36
2023-03-10T12:18:19.815Z,68.58
2023-03-10T12:21:24.051Z,59.62
2023-03-10T12:24:46.346Z,62.35
2023-03-10T12:28:13.489Z,56.91
2023-03-10T12:31:04.938Z,61.57
2023-03-10T12:34:09.226Z,63.02
2023-03-10T12:37:08.583Z,58.42
2023-03-10T12:39:59.317Z,55.08
2023-03-10T12:42:48.595Z,54.06
2023-03-10T12:45:45.672Z,56.78
2023-03-10T12:48:41.670Z,55.63
2023-03-10T12:51:32.658Z,56.18
2023-03-10T12:55:24.405Z,55.13
2023-03-10T12:58:22.613Z,54.23
2023-03-10T13:01:16.391Z,53.65
2023-03-10T13:04:08.994Z,47.24
2023-03-10T13:07:03.699Z,49.13
2023-03-10T13:09:54.104Z,48.99
2023-03-10T13:12:49.205Z,50.97
2023-03-10T13:15:39.811Z,49.23
2023-03-10T13:18:29.635Z,48.88
2023-03-10T13:21:29.556Z,46.72
2023-03-10T13:24:26.641Z,42.38
2023-03-10T13:27:19.702Z,43.86
2023-03-10T13:30:16.639Z,40.24
2023-03-10T13:33:24.674Z,36.24
2023-03-10T13:36:30.043Z,39.33
2023-03-10T13:39:24.333Z,40.52
2023-03-10T13:42:37.096Z,35.54
2023-03-10T13:45:34.415Z,35.60
2023-03-10T13:48:27.356Z,37.52
2023-03-10T13:51:23.850Z,37.28
2023-03-10T13:54:21.480Z,34.66
2023-03-10T13:57:19.100Z,35.56
2023-03-10T14:00:13.394Z,30.64
2023-03-10T14:03:03.028Z,35.15
2023-03-10T14:05:54.077Z,35.12
2023-03-10T14:08:43.248Z,34.20
2023-03-10T14:11:36.821Z,31.99
2023-03-10T14:14:32.033Z,32.63
2023-03-10T14:17:35.361Z,31.42
2023-03-10T14:20:29.577Z,32.32
2023-03-10T14:23:32.557Z,32.89
2023-03-10T14:26:21.697Z,31.43
2023-03-10T14:29:17.174Z,29.84
2023-03-10T14:32:07.810Z,29.01
2023-03-10T14:34:57.131Z,28.48
2023-03-10T14:37:46.361Z,28.13
2023-03-10T14:40:42.526Z,27.57
2023-03-10T14:43:33.361Z,29.02
2023-03-10T14:46:22.837Z,27.63
2023-03-10T14:49:17.579Z,30.30
2023-03-10T14:52:14.433Z,29.32
2023-03-10T14:55:03.764Z,27.61
2023-03-10T14:58:01.065Z,27.70
2023-03-10T15:00:51.082Z,29.00
2023-03-10T15:03:41.373Z,30.65
2023-03-10T15:06:30.605Z,30.38
2023-03-10T15:09:20.007Z,30.67
2023-03-10T15:12:11.315Z,27.72
2023-03-10T15:15:01.924Z,28.38
2023-03-10T15:17:52.091Z,27.48
2023-03-10T15:20:41.789Z,27.50
2023-03-10T15:23:32.484Z,28.28
2023-03-10T15:26:21.958Z,27.82
2023-03-10T15:29:15.062Z,27.25
2023-03-10T15:32:06.484Z,25.62
2023-03-10T15:34:55.713Z,25.26
2023-03-10T15:37:45.865Z,28.00
2023-03-10T15:40:36.133Z,27.45
2023-03-10T15:43:25.630Z,28.76
2023-03-10T15:46:15.005Z,29.87
2023-03-10T15:49:06.642Z,30.00
2023-03-10T15:51:56.180Z,31.10
2023-03-10T15:54:45.511Z,31.79
2023-03-10T15:57:35.060Z,32.74
2023-03-10T16:00:26.806Z,33.14
2023-03-10T16:03:18.380Z,32.86
2023-03-10T16:06:10.745Z,33.07
2023-03-10T16:09:00.180Z,34.68
2023-03-10T16:11:49.735Z,35.24
2023-03-10T16:14:39.023Z,36.03
2023-03-10T16:17:31.559Z,36.33
2023-03-10T16:20:21.406Z,36.88
2023-03-10T16:23:12.137Z,37.22
2023-03-10T16:26:13.428Z,36.89
2023-03-10T16:29:02.601Z,37.72
2023-03-10T16:31:51.982Z,38.31
2023-03-10T16:34:41.145Z,39.25
2023-03-10T16:37:31.663Z,38.23
2023-03-10T16:40:22.323Z,38.62
2023-03-10T16:43:11.824Z,39.06
2023-03-10T16:46:10.381Z,39.88
2023-03-10T16:49:01.241Z,39.57
2023-03-10T16:51:50.610Z,39.59
2023-03-10T16:54:39.918Z,39.18
2023-03-10T16:57:30.667Z,38.65
2023-03-10T17:00:21.251Z,40.09
2023-03-10T17:03:10.548Z,40.32
2023-03-10T17:05:59.883Z,39.99
2023-03-10T17:08:49.616Z,41.10
2023-03-10T17:11:41.654Z,41.51
2023-03-10T17:14:32.307Z,41.27
2023-03-10T17:17:21.687Z,42.42
2023-03-10T17:20:12.767Z,43.11
2023-03-10T17:23:02.648Z,43.18
2023-03-10T17:25:51.997Z,43.10
2023-03-10T17:28:43.066Z,43.86
2023-03-10T17:31:34.098Z,43.72
2023-03-10T17:34:23.709Z,44.56
2023-03-10T17:37:12.949Z,45.43
2023-03-10T17:40:02.091Z,45.54
2023-03-10T17:42:51.741Z,46.18
2023-03-10T17:45:41.025Z,45.94
2023-03-10T17:48:32.840Z,46.39
2023-03-10T17:51:25.822Z,46.65
2023-03-10T17:54:17.470Z,46.53
2023-03-10T17:57:07.151Z,47.46
2023-03-10T17:59:56.505Z,47.47
2023-03-10T18:02:45.941Z,47.99
2023-03-10T18:05:41.446Z,48.20
2023-03-10T18:08:30.920Z,48.24
2023-03-10T18:11:21.743Z,48.65
2023-03-10T18:14:11.167Z,48.92
2023-03-10T18:17:02.964Z,49.07
2023-03-10T18:19:54.170Z,49.27
2023-03-10T18:22:44.761Z,49.81
2023-03-10T18:25:34.078Z,50.33
2023-03-10T18:28:24.029Z,49.71
2023-03-10T18:31:19.710Z,50.33
2023-03-10T18:34:10.293Z,50.32
2023-03-10T18:36:59.970Z,50.51
2023-03-10T18:39:50.754Z,51.25
2023-03-10T18:42:40.050Z,51.47
2023-03-10T18:45:29.207Z,51.43
2023-03-10T18:48:18.496Z,52.11
2023-03-10T18:51:07.730Z,52.75
2023-03-10T18:53:57.336Z,53.31
2023-03-10T18:56:48.047Z,53.85
2023-03-10T18:59:37.533Z,54.94
2023-03-10T19:02:27.153Z,54.62
2023-03-10T19:05:17.743Z,54.72
2023-03-10T19:08:07.876Z,54.84
2023-03-10T19:10:58.957Z,56.18
2023-03-10T19:13:49.808Z,56.28
2023-03-10T19:16:40.855Z,57.58
2023-03-10T19:19:30.227Z,57.17
2023-03-10T19:22:19.538Z,58.10
2023-03-10T19:25:13.000Z,58.17
2023-03-10T19:28:02.969Z,59.37
2023-03-10T19:30:54.492Z,58.51
2023-03-10T19:33:44.253Z,58.70
2023-03-10T19:36:34.607Z,59.02
2023-03-10T19:39:24.537Z,58.30
2023-03-10T19:42:13.694Z,58.77
2023-03-10T19:45:03.855Z,58.18
2023-03-10T19:47:58.129Z,58.88
2023-03-10T19:50:55.448Z,59.54
2023-03-10T19:53:44.856Z,59.00
2023-03-10T19:56:34.613Z,59.25
2023-03-10T19:59:25.264Z,59.00
2023-03-10T20:02:17.568Z,59.31
2023-03-10T20:05:10.083Z,59.48
2023-03-10T20:08:00.643Z,59.63
2023-03-10T20:10:50.249Z,59.87
2023-03-10T20:13:39.827Z,59.74
2023-03-10T20:16:29.594Z,60.25
2023-03-10T20:19:22.948Z,60.15
2023-03-10T20:22:18.612Z,60.92
2023-03-10T20:25:11.691Z,61.77
2023-03-10T20:28:01.411Z,61.04
2023-03-10T20:30:50.972Z,60.73
2023-03-10T20:33:40.247Z,61.57
2023-03-10T20:36:31.059Z,61.56
2023-03-10T20:39:22.885Z,62.84
2023-03-10T20:42:13.204Z,62.75
2023-03-10T20:45:02.767Z,62.69
2023-03-10T20:47:53.348Z,61.83
2023-03-10T20:50:43.029Z,62.62
2023-03-10T20:53:37.469Z,62.19
2023-03-10T20:56:31.066Z,62.34
2023-03-10T20:59:21.484Z,62.00
2023-03-10T21:02:16.032Z,62.04
2023-03-10T21:05:06.645Z,62.94
2023-03-10T21:07:56.383Z,63.02
2023-03-10T21:10:47.675Z,62.17
2023-03-10T21:13:41.169Z,62.84
2023-03-10T21:16:31.010Z,63.09
2023-03-10T21:19:20.274Z,62.78
2023-03-10T21:22:10.170Z,63.94
2023-03-10T21:24:59.597Z,64.57
2023-03-10T21:27:51.278Z,65.30
2023-03-10T21:30:43.454Z,65.44
2023-03-10T21:33:34.106Z,66.02
2023-03-10T21:36:25.406Z,66.01
2023-03-10T21:39:14.762Z,66.53
2023-03-10T21:42:04.178Z,66.48
2023-03-10T21:44:55.274Z,66.70
2023-03-10T21:47:46.289Z,66.62
2023-03-10T21:50:35.710Z,66.26
2023-03-10T21:53:26.846Z,65.48
2023-03-10T21:56:17.970Z,65.52
2023-03-10T21:59:08.008Z,66.63
2023-03-10T22:01:57.509Z,65.99
2023-03-10T22:04:48.189Z,66.31
2023-03-10T22:07:40.681Z,67.28
2023-03-10T22:10:30.321Z,66.48
2023-03-10T22:13:19.673Z,66.80
2023-03-10T22:16:10.914Z,65.90
2023-03-10T22:19:00.557Z,65.67
2023-03-10T22:21:51.451Z,66.32
2023-03-10T22:24:41.290Z,66.48
2023-03-10T22:27:30.644Z,67.17
2023-03-10T22:30:20.488Z,66.54
2023-03-10T22:33:09.707Z,65.89
2023-03-10T22:36:03.931Z,65.75
2023-03-10T22:38:54.763Z,66.59
2023-03-10T22:41:44.145Z,66.01
2023-03-10T22:44:36.787Z,65.67
2023-03-10T22:47:26.459Z,66.16
2023-03-10T22:50:19.789Z,65.97
2023-03-10T22:53:14.237Z,65.51
2023-03-10T22:56:05.165Z,66.00
2023-03-10T22:58:54.588Z,66.41
2023-03-10T23:01:44.637Z,66.44
2023-03-10T23:04:34.183Z,66.09
2023-03-10T23:07:23.370Z,66.08
2023-03-10T23:10:19.000Z,67.01
2023-03-10T23:13:14.866Z,67.17
2023-03-10T23:16:04.367Z,68.39
2023-03-10T23:18:53.608Z,67.90
2023-03-10T23:21:42.747Z,67.66
2023-03-10T23:24:32.054Z,67.76
2023-03-10T23:27:21.406Z,67.90
2023-03-10T23:30:14.921Z,67.88
2023-03-10T23:33:05.041Z,68.44
2023-03-10T23:35:54.772Z,68.11
2023-03-10T23:38:44.000Z,68.51
2023-03-10T23:41:33.197Z,69.45
2023-03-10T23:44:22.810Z,68.79
2023-03-10T23:47:13.469Z,69.07
2023-03-10T23:50:02.826Z,69.35
2023-03-10T23:52:52.326Z,69.39
2023-03-10T23:55:44.421Z,69.21
2023-03-10T23:58:33.726Z,68.28
